sensor_id;sensor_type;location;lat;lon;timestamp;pressure;altitude;pressure_sealevel;temperature;humidity
36520;BME280;40269;46.742;9.778;2023-06-22T00:00:23;86175.40;;;16.83;43.48
36520;BME280;40269;46.742;9.778;2023-06-22T00:02:50;86175.39;;;16.61;44.57
36520;BME280;40269;46.742;9.778;2023-06-22T00:05:17;86175.79;;;18.05;41.99
36520;BME280;40269;46.742;9.778;2023-06-22T00:07:44;86181.06;;;18.02;41.68
36520;BME280;40269;46.742;9.778;2023-06-22T00:10:11;86171.99;;;17.31;43.15
36520;BME280;40269;46.742;9.778;2023-06-22T00:12:38;86175.98;;;16.25;44.51
36520;BME280;40269;46.742;9.778;2023-06-22T00:15:06;86179.59;;;16.77;44.12
36520;BME280;40269;46.742;9.778;2023-06-22T00:17:33;86176.55;;;16.85;43.98
36520;BME280;40269;46.742;9.778;2023-06-22T00:20:00;86171.70;;;17.70;41.40
36520;BME280;40269;46.742;9.778;2023-06-22T00:22:26;86170.62;;;17.37;43.06
36520;BME280;40269;46.742;9.778;2023-06-22T00:24:53;86160.53;;;17.04;42.77
36520;BME280;40269;46.742;9.778;2023-06-22T00:27:20;86167.78;;;14.06;50.25
36520;BME280;40269;46.742;9.778;2023-06-22T00:29:47;86160.82;;;13.66;50.74
36520;BME280;40269;46.742;9.778;2023-06-22T00:32:14;86170.91;;;13.48;51.03
36520;BME280;40269;46.742;9.778;2023-06-22T00:34:41;86163.12;;;15.11;48.35
36520;BME280;40269;46.742;9.778;2023-06-22T00:37:08;86164.34;;;15.67;46.53
36520;BME280;40269;46.742;9.778;2023-06-22T00:39:36;86152.30;;;16.14;44.95
36520;BME280;40269;46.742;9.778;2023-06-22T00:42:03;86150.76;;;17.17;43.20
36520;BME280;40269;46.742;9.778;2023-06-22T00:44:31;86149.11;;;17.02;42.89
36520;BME280;40269;46.742;9.778;2023-06-22T00:46:58;86147.04;;;15.76;44.91
36520;BME280;40269;46.742;9.778;2023-06-22T00:49:26;86140.65;;;16.58;43.84
36520;BME280;40269;46.742;9.778;2023-06-22T00:51:53;86136.47;;;15.96;45.68
36520;BME280;40269;46.742;9.778;2023-06-22T00:54:20;86152.10;;;15.31;45.95
36520;BME280;40269;46.742;9.778;2023-06-22T00:56:47;86152.65;;;15.11;46.64
36520;BME280;40269;46.742;9.778;2023-06-22T00:59:14;86149.12;;;15.61;45.29
36520;BME280;40269;46.742;9.778;2023-06-22T01:01:41;86145.36;;;16.11;45.09
36520;BME280;40269;46.742;9.778;2023-06-22T01:04:08;86147.77;;;15.40;46.17
36520;BME280;40269;46.742;9.778;2023-06-22T01:06:41;86152.00;;;13.96;49.09
36520;BME280;40269;46.742;9.778;2023-06-22T01:09:15;86157.14;;;15.38;46.29
36520;BME280;40269;46.742;9.778;2023-06-22T01:11:53;86154.85;;;16.33;44.19
36520;BME280;40269;46.742;9.778;2023-06-22T01:14:26;86159.18;;;16.56;43.82
36520;BME280;40269;46.742;9.778;2023-06-22T01:16:55;86159.91;;;17.00;42.97
36520;BME280;40269;46.742;9.778;2023-06-22T01:19:34;86160.79;;;17.90;41.65
36520;BME280;40269;46.742;9.778;2023-06-22T01:22:02;86157.10;;;14.55;46.93
36520;BME280;40269;46.742;9.778;2023-06-22T01:24:33;86154.16;;;16.38;44.46
36520;BME280;40269;46.742;9.778;2023-06-22T01:27:15;86161.51;;;17.06;43.00
36520;BME280;40269;46.742;9.778;2023-06-22T01:29:45;86161.33;;;16.75;43.01
36520;BME280;40269;46.742;9.778;2023-06-22T01:32:13;86158.16;;;17.48;42.15
36520;BME280;40269;46.742;9.778;2023-06-22T01:34:42;86157.93;;;14.22;47.51
36520;BME280;40269;46.742;9.778;2023-06-22T01:37:09;86159.44;;;15.87;44.39
36520;BME280;40269;46.742;9.778;2023-06-22T01:39:37;86158.21;;;17.48;41.78
36520;BME280;40269;46.742;9.778;2023-06-22T01:42:05;86154.70;;;17.32;41.90
36520;BME280;40269;46.742;9.778;2023-06-22T01:44:34;86156.93;;;16.10;43.69
36520;BME280;40269;46.742;9.778;2023-06-22T01:47:01;86166.20;;;15.52;45.11
36520;BME280;40269;46.742;9.778;2023-06-22T01:49:28;86169.10;;;17.28;42.58
36520;BME280;40269;46.742;9.778;2023-06-22T01:51:55;86171.58;;;17.01;42.77
36520;BME280;40269;46.742;9.778;2023-06-22T01:54:22;86167.00;;;15.56;44.93
36520;BME280;40269;46.742;9.778;2023-06-22T01:56:49;86164.69;;;14.20;47.24
36520;BME280;40269;46.742;9.778;2023-06-22T01:59:23;86175.11;;;14.89;46.15
36520;BME280;40269;46.742;9.778;2023-06-22T02:01:57;86176.18;;;16.30;44.10
36520;BME280;40269;46.742;9.778;2023-06-22T02:04:27;86173.48;;;15.97;44.25
36520;BME280;40269;46.742;9.778;2023-06-22T02:06:58;86177.96;;;15.57;44.78
36520;BME280;40269;46.742;9.778;2023-06-22T02:09:29;86181.62;;;16.60;42.85
36520;BME280;40269;46.742;9.778;2023-06-22T02:11:58;86176.01;;;16.54;43.30
36520;BME280;40269;46.742;9.778;2023-06-22T02:14:27;86177.68;;;16.81;42.11
36520;BME280;40269;46.742;9.778;2023-06-22T02:16:54;86181.25;;;16.81;42.45
36520;BME280;40269;46.742;9.778;2023-06-22T02:19:23;86180.06;;;16.47;42.30
36520;BME280;40269;46.742;9.778;2023-06-22T02:21:50;86186.14;;;17.08;41.52
36520;BME280;40269;46.742;9.778;2023-06-22T02:24:17;86177.75;;;17.51;40.75
36520;BME280;40269;46.742;9.778;2023-06-22T02:26:44;86174.14;;;16.76;42.25
36520;BME280;40269;46.742;9.778;2023-06-22T02:29:10;86172.24;;;17.47;40.97
36520;BME280;40269;46.742;9.778;2023-06-22T02:31:37;86176.69;;;17.95;40.02
36520;BME280;40269;46.742;9.778;2023-06-22T02:34:04;86175.20;;;17.43;40.06
36520;BME280;40269;46.742;9.778;2023-06-22T02:36:31;86174.98;;;17.32;41.07
36520;BME280;40269;46.742;9.778;2023-06-22T02:38:58;86178.36;;;14.65;45.39
36520;BME280;40269;46.742;9.778;2023-06-22T02:41:25;86173.78;;;15.64;44.93
36520;BME280;40269;46.742;9.778;2023-06-22T02:43:51;86176.10;;;16.14;43.70
36520;BME280;40269;46.742;9.778;2023-06-22T02:46:18;86172.34;;;14.87;45.95
36520;BME280;40269;46.742;9.778;2023-06-22T02:48:45;86172.38;;;14.28;47.25
36520;BME280;40269;46.742;9.778;2023-06-22T02:51:13;86174.34;;;16.65;42.37
36520;BME280;40269;46.742;9.778;2023-06-22T02:53:40;86177.23;;;16.73;42.70
36520;BME280;40269;46.742;9.778;2023-06-22T02:56:06;86181.12;;;15.73;43.50
36520;BME280;40269;46.742;9.778;2023-06-22T02:58:33;86175.21;;;17.76;41.02
36520;BME280;40269;46.742;9.778;2023-06-22T03:01:00;86171.67;;;16.46;43.39
36520;BME280;40269;46.742;9.778;2023-06-22T03:03:27;86167.59;;;15.08;45.65
36520;BME280;40269;46.742;9.778;2023-06-22T03:05:54;86161.05;;;16.73;43.08
36520;BME280;40269;46.742;9.778;2023-06-22T03:08:21;86158.02;;;16.85;41.93
36520;BME280;40269;46.742;9.778;2023-06-22T03:10:47;86155.30;;;15.34;44.78
36520;BME280;40269;46.742;9.778;2023-06-22T03:13:15;86152.30;;;16.82;42.54
36520;BME280;40269;46.742;9.778;2023-06-22T03:15:42;86145.58;;;16.86;41.61
36520;BME280;40269;46.742;9.778;2023-06-22T03:18:09;86142.51;;;14.52;47.05
36520;BME280;40269;46.742;9.778;2023-06-22T03:20:36;86148.66;;;17.14;42.50
36520;BME280;40269;46.742;9.778;2023-06-22T03:23:03;86160.75;;;16.86;42.08
36520;BME280;40269;46.742;9.778;2023-06-22T03:25:30;86152.59;;;17.85;40.38
36520;BME280;40269;46.742;9.778;2023-06-22T03:27:57;86139.53;;;17.83;41.01
36520;BME280;40269;46.742;9.778;2023-06-22T03:30:24;86139.02;;;14.28;47.55
36520;BME280;40269;46.742;9.778;2023-06-22T03:32:52;86136.75;;;16.28;43.34
36520;BME280;40269;46.742;9.778;2023-06-22T03:35:19;86130.33;;;16.52;43.30
36520;BME280;40269;46.742;9.778;2023-06-22T03:37:46;86114.53;;;16.89;41.66
36520;BME280;40269;46.742;9.778;2023-06-22T03:40:13;86103.29;;;16.61;43.44
36520;BME280;40269;46.742;9.778;2023-06-22T03:42:40;86096.88;;;13.57;49.22
36520;BME280;40269;46.742;9.778;2023-06-22T03:45:09;86090.41;;;14.56;47.17
36520;BME280;40269;46.742;9.778;2023-06-22T03:47:36;86096.82;;;15.77;44.86
36520;BME280;40269;46.742;9.778;2023-06-22T03:50:04;86102.06;;;15.53;44.85
36520;BME280;40269;46.742;9.778;2023-06-22T03:52:31;86102.79;;;14.00;48.50
36520;BME280;40269;46.742;9.778;2023-06-22T03:54:59;86104.24;;;16.00;44.47
36520;BME280;40269;46.742;9.778;2023-06-22T03:57:25;86117.67;;;16.58;42.92
36520;BME280;40269;46.742;9.778;2023-06-22T03:59:56;86113.99;;;15.24;45.92
36520;BME280;40269;46.742;9.778;2023-06-22T04:02:23;86115.11;;;15.66;45.96
36520;BME280;40269;46.742;9.778;2023-06-22T04:04:50;86112.80;;;13.80;49.14
36520;BME280;40269;46.742;9.778;2023-06-22T04:07:17;86117.25;;;12.71;52.20
36520;BME280;40269;46.742;9.778;2023-06-22T04:09:43;86124.55;;;16.10;44.86
36520;BME280;40269;46.742;9.778;2023-06-22T04:12:10;86115.87;;;15.69;44.99
36520;BME280;40269;46.742;9.778;2023-06-22T04:14:37;86125.85;;;14.74;46.41
36520;BME280;40269;46.742;9.778;2023-06-22T04:17:04;86129.51;;;16.43;43.19
36520;BME280;40269;46.742;9.778;2023-06-22T04:19:31;86121.33;;;17.88;40.40
36520;BME280;40269;46.742;9.778;2023-06-22T04:21:58;86118.05;;;17.14;41.33
36520;BME280;40269;46.742;9.778;2023-06-22T04:24:25;86122.77;;;16.56;42.21
36520;BME280;40269;46.742;9.778;2023-06-22T04:26:53;86125.48;;;16.47;42.54
36520;BME280;40269;46.742;9.778;2023-06-22T04:29:20;86123.64;;;17.07;42.74
36520;BME280;40269;46.742;9.778;2023-06-22T04:31:47;86126.31;;;14.08;47.80
36520;BME280;40269;46.742;9.778;2023-06-22T04:34:15;86134.09;;;15.55;45.35
36520;BME280;40269;46.742;9.778;2023-06-22T04:36:42;86139.51;;;17.14;42.66
36520;BME280;40269;46.742;9.778;2023-06-22T04:39:10;86138.35;;;17.38;42.69
36520;BME280;40269;46.742;9.778;2023-06-22T04:41:39;86132.26;;;17.39;41.82
36520;BME280;40269;46.742;9.778;2023-06-22T04:44:06;86131.03;;;17.18;41.52
36520;BME280;40269;46.742;9.778;2023-06-22T04:46:33;86134.82;;;16.67;42.38
36520;BME280;40269;46.742;9.778;2023-06-22T04:49:00;86142.41;;;16.53;43.33
36520;BME280;40269;46.742;9.778;2023-06-22T04:51:27;86135.83;;;16.56;43.35
36520;BME280;40269;46.742;9.778;2023-06-22T04:53:54;86134.79;;;16.59;43.94
36520;BME280;40269;46.742;9.778;2023-06-22T04:56:21;86130.75;;;16.83;42.39
36520;BME280;40269;46.742;9.778;2023-06-22T04:58:47;86132.14;;;17.70;41.04
36520;BME280;40269;46.742;9.778;2023-06-22T05:01:15;86134.99;;;16.18;43.98
36520;BME280;40269;46.742;9.778;2023-06-22T05:03:41;86137.62;;;17.65;40.91
36520;BME280;40269;46.742;9.778;2023-06-22T05:06:08;86146.20;;;17.94;40.60
36520;BME280;40269;46.742;9.778;2023-06-22T05:08:35;86142.96;;;16.71;43.08
36520;BME280;40269;46.742;9.778;2023-06-22T05:11:02;86138.76;;;18.02;40.37
36520;BME280;40269;46.742;9.778;2023-06-22T05:13:29;86136.74;;;17.50;41.23
36520;BME280;40269;46.742;9.778;2023-06-22T05:15:55;86138.18;;;17.06;42.41
36520;BME280;40269;46.742;9.778;2023-06-22T05:18:22;86134.40;;;18.55;39.32
36520;BME280;40269;46.742;9.778;2023-06-22T05:20:49;86130.46;;;18.50;39.07
36520;BME280;40269;46.742;9.778;2023-06-22T05:23:16;86134.86;;;17.81;40.99
36520;BME280;40269;46.742;9.778;2023-06-22T05:25:42;86137.48;;;17.22;41.64
36520;BME280;40269;46.742;9.778;2023-06-22T05:28:09;86134.50;;;18.57;39.45
36520;BME280;40269;46.742;9.778;2023-06-22T05:30:37;86132.98;;;19.40;38.17
36520;BME280;40269;46.742;9.778;2023-06-22T05:33:03;86132.75;;;19.21;37.92
36520;BME280;40269;46.742;9.778;2023-06-22T05:35:31;86127.40;;;19.01;39.21
36520;BME280;40269;46.742;9.778;2023-06-22T05:37:58;86135.34;;;17.92;40.88
36520;BME280;40269;46.742;9.778;2023-06-22T05:40:24;86136.07;;;18.88;39.63
36520;BME280;40269;46.742;9.778;2023-06-22T05:42:51;86132.58;;;19.54;37.67
36520;BME280;40269;46.742;9.778;2023-06-22T05:45:18;86133.64;;;18.17;40.23
36520;BME280;40269;46.742;9.778;2023-06-22T05:47:45;86146.39;;;16.72;43.02
36520;BME280;40269;46.742;9.778;2023-06-22T05:50:12;86136.40;;;18.98;39.47
36520;BME280;40269;46.742;9.778;2023-06-22T05:52:39;86141.63;;;19.68;38.30
36520;BME280;40269;46.742;9.778;2023-06-22T05:55:07;86138.25;;;19.99;37.38
36520;BME280;40269;46.742;9.778;2023-06-22T05:57:34;86138.18;;;19.12;38.68
36520;BME280;40269;46.742;9.778;2023-06-22T06:00:01;86144.06;;;15.71;45.54
36520;BME280;40269;46.742;9.778;2023-06-22T06:02:28;86148.15;;;16.89;44.24
36520;BME280;40269;46.742;9.778;2023-06-22T06:04:55;86147.66;;;18.83;40.28
36520;BME280;40269;46.742;9.778;2023-06-22T06:07:22;86152.45;;;18.61;42.00
36520;BME280;40269;46.742;9.778;2023-06-22T06:09:49;86153.81;;;19.62;39.54
36520;BME280;40269;46.742;9.778;2023-06-22T06:12:15;86151.12;;;18.89;40.94
36520;BME280;40269;46.742;9.778;2023-06-22T06:14:42;86150.26;;;19.49;38.67
36520;BME280;40269;46.742;9.778;2023-06-22T06:17:09;86144.84;;;19.80;37.81
36520;BME280;40269;46.742;9.778;2023-06-22T06:19:36;86145.75;;;18.17;41.70
36520;BME280;40269;46.742;9.778;2023-06-22T06:22:03;86136.93;;;19.11;38.19
36520;BME280;40269;46.742;9.778;2023-06-22T06:24:30;86134.04;;;19.40;38.08
36520;BME280;40269;46.742;9.778;2023-06-22T06:26:57;86140.65;;;17.77;42.96
36520;BME280;40269;46.742;9.778;2023-06-22T06:29:24;86142.29;;;18.00;42.96
36520;BME280;40269;46.742;9.778;2023-06-22T06:31:51;86140.67;;;18.78;40.75
36520;BME280;40269;46.742;9.778;2023-06-22T06:34:18;86131.91;;;18.23;43.27
36520;BME280;40269;46.742;9.778;2023-06-22T06:36:45;86133.12;;;18.55;41.99
36520;BME280;40269;46.742;9.778;2023-06-22T06:39:12;86133.47;;;17.34;44.08
36520;BME280;40269;46.742;9.778;2023-06-22T06:41:39;86131.13;;;19.01;41.66
36520;BME280;40269;46.742;9.778;2023-06-22T06:44:06;86126.35;;;19.73;39.15
36520;BME280;40269;46.742;9.778;2023-06-22T06:46:33;86124.43;;;18.63;41.36
36520;BME280;40269;46.742;9.778;2023-06-22T06:49:00;86123.58;;;18.65;41.07
36520;BME280;40269;46.742;9.778;2023-06-22T06:51:27;86120.67;;;21.36;36.12
36520;BME280;40269;46.742;9.778;2023-06-22T06:53:54;86116.91;;;21.97;36.10
36520;BME280;40269;46.742;9.778;2023-06-22T06:56:21;86116.60;;;19.19;41.67
36520;BME280;40269;46.742;9.778;2023-06-22T06:58:49;86119.90;;;21.12;37.34
36520;BME280;40269;46.742;9.778;2023-06-22T07:01:17;86117.37;;;21.37;39.16
36520;BME280;40269;46.742;9.778;2023-06-22T07:03:43;86126.60;;;19.26;42.64
36520;BME280;40269;46.742;9.778;2023-06-22T07:06:10;86122.70;;;20.48;39.03
36520;BME280;40269;46.742;9.778;2023-06-22T07:08:37;86115.01;;;20.81;37.42
36520;BME280;40269;46.742;9.778;2023-06-22T07:11:04;86111.89;;;19.43;41.30
36520;BME280;40269;46.742;9.778;2023-06-22T07:13:31;86104.63;;;20.88;38.49
36520;BME280;40269;46.742;9.778;2023-06-22T07:15:57;86102.71;;;20.49;39.83
36520;BME280;40269;46.742;9.778;2023-06-22T07:18:24;86097.39;;;22.24;37.57
36520;BME280;40269;46.742;9.778;2023-06-22T07:20:51;86087.04;;;22.64;36.53
36520;BME280;40269;46.742;9.778;2023-06-22T07:23:18;86087.60;;;20.36;35.70
36520;BME280;40269;46.742;9.778;2023-06-22T07:25:45;86083.89;;;21.93;34.30
36520;BME280;40269;46.742;9.778;2023-06-22T07:28:12;86076.92;;;21.73;36.82
36520;BME280;40269;46.742;9.778;2023-06-22T07:30:39;86076.90;;;21.90;35.41
36520;BME280;40269;46.742;9.778;2023-06-22T07:33:11;86074.43;;;22.02;35.13
36520;BME280;40269;46.742;9.778;2023-06-22T07:35:38;86073.29;;;22.56;34.24
36520;BME280;40269;46.742;9.778;2023-06-22T07:38:05;86065.95;;;23.10;32.88
36520;BME280;40269;46.742;9.778;2023-06-22T07:40:32;86061.50;;;23.27;32.20
36520;BME280;40269;46.742;9.778;2023-06-22T07:42:59;86066.01;;;23.11;31.85
36520;BME280;40269;46.742;9.778;2023-06-22T07:45:27;86065.39;;;23.38;30.01
36520;BME280;40269;46.742;9.778;2023-06-22T07:47:53;86069.41;;;21.93;32.40
36520;BME280;40269;46.742;9.778;2023-06-22T07:50:21;86074.81;;;21.55;30.43
36520;BME280;40269;46.742;9.778;2023-06-22T07:52:48;86069.85;;;22.59;28.00
36520;BME280;40269;46.742;9.778;2023-06-22T07:55:15;86066.77;;;24.37;26.91
36520;BME280;40269;46.742;9.778;2023-06-22T07:57:42;86082.32;;;22.49;25.87
36520;BME280;40269;46.742;9.778;2023-06-22T08:00:10;86074.57;;;22.07;28.82
36520;BME280;40269;46.742;9.778;2023-06-22T08:02:38;86064.30;;;23.00;25.24
36520;BME280;40269;46.742;9.778;2023-06-22T08:05:06;86074.90;;;21.73;25.95
36520;BME280;40269;46.742;9.778;2023-06-22T08:07:33;86068.06;;;23.64;24.92
36520;BME280;40269;46.742;9.778;2023-06-22T08:09:59;86072.65;;;22.88;24.89
36520;BME280;40269;46.742;9.778;2023-06-22T08:12:26;86064.19;;;23.23;24.77
36520;BME280;40269;46.742;9.778;2023-06-22T08:14:53;86084.79;;;22.95;24.36
36520;BME280;40269;46.742;9.778;2023-06-22T08:17:20;86080.53;;;23.23;24.75
36520;BME280;40269;46.742;9.778;2023-06-22T08:19:46;86070.24;;;22.00;25.81
36520;BME280;40269;46.742;9.778;2023-06-22T08:22:13;86075.43;;;22.35;25.69
36520;BME280;40269;46.742;9.778;2023-06-22T08:24:40;86074.76;;;22.62;25.24
36520;BME280;40269;46.742;9.778;2023-06-22T08:27:07;86073.63;;;24.10;24.10
36520;BME280;40269;46.742;9.778;2023-06-22T08:29:34;86078.29;;;23.29;24.26
36520;BME280;40269;46.742;9.778;2023-06-22T08:32:01;86077.82;;;22.49;25.42
36520;BME280;40269;46.742;9.778;2023-06-22T08:34:28;86074.09;;;22.23;25.54
36520;BME280;40269;46.742;9.778;2023-06-22T08:36:55;86088.04;;;23.28;23.92
36520;BME280;40269;46.742;9.778;2023-06-22T08:39:23;86085.69;;;22.45;24.61
36520;BME280;40269;46.742;9.778;2023-06-22T08:41:49;86078.80;;;23.31;24.44
36520;BME280;40269;46.742;9.778;2023-06-22T08:44:18;86073.13;;;23.24;22.91
36520;BME280;40269;46.742;9.778;2023-06-22T08:46:46;86087.03;;;23.09;23.36
36520;BME280;40269;46.742;9.778;2023-06-22T08:49:13;86083.02;;;24.03;22.91
36520;BME280;40269;46.742;9.778;2023-06-22T08:51:41;86079.44;;;24.92;22.59
36520;BME280;40269;46.742;9.778;2023-06-22T08:54:08;86082.52;;;23.64;22.23
36520;BME280;40269;46.742;9.778;2023-06-22T08:56:35;86085.67;;;22.95;23.00
36520;BME280;40269;46.742;9.778;2023-06-22T08:59:02;86106.59;;;22.81;22.48
36520;BME280;40269;46.742;9.778;2023-06-22T09:01:29;86086.12;;;22.78;22.38
36520;BME280;40269;46.742;9.778;2023-06-22T09:03:56;86077.92;;;23.54;22.12
36520;BME280;40269;46.742;9.778;2023-06-22T09:06:23;86080.83;;;24.53;21.49
36520;BME280;40269;46.742;9.778;2023-06-22T09:08:51;86081.78;;;23.68;21.73
36520;BME280;40269;46.742;9.778;2023-06-22T09:11:18;86076.16;;;23.14;22.75
36520;BME280;40269;46.742;9.778;2023-06-22T09:13:45;86072.73;;;24.03;22.64
36520;BME280;40269;46.742;9.778;2023-06-22T09:16:12;86072.64;;;24.85;22.10
36520;BME280;40269;46.742;9.778;2023-06-22T09:18:38;86064.37;;;25.21;21.66
36520;BME280;40269;46.742;9.778;2023-06-22T09:21:05;86059.63;;;25.50;19.49
36520;BME280;40269;46.742;9.778;2023-06-22T09:23:32;86057.43;;;25.84;18.72
36520;BME280;40269;46.742;9.778;2023-06-22T09:25:59;86046.22;;;26.25;18.40
36520;BME280;40269;46.742;9.778;2023-06-22T09:28:25;86048.33;;;25.80;19.50
36520;BME280;40269;46.742;9.778;2023-06-22T09:30:52;86050.35;;;26.70;19.00
36520;BME280;40269;46.742;9.778;2023-06-22T09:33:19;86040.82;;;26.01;19.04
36520;BME280;40269;46.742;9.778;2023-06-22T09:35:46;86034.87;;;26.01;18.69
36520;BME280;40269;46.742;9.778;2023-06-22T09:38:13;86033.49;;;25.80;20.02
36520;BME280;40269;46.742;9.778;2023-06-22T09:40:39;86029.94;;;27.15;18.11
36520;BME280;40269;46.742;9.778;2023-06-22T09:43:06;86030.86;;;27.24;18.50
36520;BME280;40269;46.742;9.778;2023-06-22T09:45:33;86022.73;;;25.81;19.29
36520;BME280;40269;46.742;9.778;2023-06-22T09:48:00;86015.04;;;26.57;18.52
36520;BME280;40269;46.742;9.778;2023-06-22T09:50:27;86024.29;;;26.48;18.94
36520;BME280;40269;46.742;9.778;2023-06-22T09:52:54;86016.33;;;25.84;18.77
36520;BME280;40269;46.742;9.778;2023-06-22T09:55:20;86003.59;;;26.89;17.89
36520;BME280;40269;46.742;9.778;2023-06-22T09:57:48;86011.26;;;27.56;18.58
36520;BME280;40269;46.742;9.778;2023-06-22T10:00:16;86009.35;;;26.68;18.44
36520;BME280;40269;46.742;9.778;2023-06-22T10:02:44;86006.48;;;28.67;16.79
36520;BME280;40269;46.742;9.778;2023-06-22T10:05:11;86003.53;;;25.36;19.74
36520;BME280;40269;46.742;9.778;2023-06-22T10:07:37;85999.99;;;26.87;19.16
36520;BME280;40269;46.742;9.778;2023-06-22T10:10:05;86000.12;;;27.59;18.07
36520;BME280;40269;46.742;9.778;2023-06-22T10:12:32;86005.87;;;28.80;16.94
36520;BME280;40269;46.742;9.778;2023-06-22T10:14:58;86001.27;;;28.15;17.68
36520;BME280;40269;46.742;9.778;2023-06-22T10:17:25;86000.34;;;27.02;18.38
36520;BME280;40269;46.742;9.778;2023-06-22T10:19:52;85996.26;;;26.80;18.55
36520;BME280;40269;46.742;9.778;2023-06-22T10:22:19;85987.65;;;28.32;17.01
36520;BME280;40269;46.742;9.778;2023-06-22T10:24:47;85994.92;;;27.77;17.48
36520;BME280;40269;46.742;9.778;2023-06-22T10:27:14;85989.76;;;28.46;16.46
36520;BME280;40269;46.742;9.778;2023-06-22T10:29:41;85991.87;;;27.95;16.70
36520;BME280;40269;46.742;9.778;2023-06-22T10:32:08;85986.11;;;28.72;16.62
36520;BME280;40269;46.742;9.778;2023-06-22T10:34:35;85992.84;;;26.78;18.04
36520;BME280;40269;46.742;9.778;2023-06-22T10:37:03;85977.77;;;27.71;18.22
36520;BME280;40269;46.742;9.778;2023-06-22T10:39:30;85985.46;;;26.68;18.47
36520;BME280;40269;46.742;9.778;2023-06-22T10:41:57;85984.56;;;26.86;17.87
36520;BME280;40269;46.742;9.778;2023-06-22T10:44:23;85986.98;;;27.35;16.97
36520;BME280;40269;46.742;9.778;2023-06-22T10:46:50;85979.30;;;26.57;18.00
36520;BME280;40269;46.742;9.778;2023-06-22T10:49:17;85971.36;;;27.96;16.54
36520;BME280;40269;46.742;9.778;2023-06-22T10:51:43;85970.13;;;28.92;15.03
36520;BME280;40269;46.742;9.778;2023-06-22T10:54:10;85979.49;;;28.39;16.30
36520;BME280;40269;46.742;9.778;2023-06-22T10:56:36;85988.61;;;27.74;15.90
36520;BME280;40269;46.742;9.778;2023-06-22T10:59:04;85983.93;;;28.11;15.89
36520;BME280;40269;46.742;9.778;2023-06-22T11:01:30;85988.20;;;28.03;15.70
36520;BME280;40269;46.742;9.778;2023-06-22T11:03:57;85995.16;;;27.60;16.27
36520;BME280;40269;46.742;9.778;2023-06-22T11:06:24;85997.77;;;26.33;15.25
36520;BME280;40269;46.742;9.778;2023-06-22T11:08:51;85989.69;;;27.37;15.79
36520;BME280;40269;46.742;9.778;2023-06-22T11:11:17;85987.65;;;27.18;15.67
36520;BME280;40269;46.742;9.778;2023-06-22T11:13:44;85984.28;;;26.17;16.66
36520;BME280;40269;46.742;9.778;2023-06-22T11:16:11;85980.27;;;25.75;16.08
36520;BME280;40269;46.742;9.778;2023-06-22T11:18:37;85975.70;;;25.53;16.56
36520;BME280;40269;46.742;9.778;2023-06-22T11:21:05;85966.68;;;25.53;17.18
36520;BME280;40269;46.742;9.778;2023-06-22T11:23:32;85977.44;;;25.24;16.65
36520;BME280;40269;46.742;9.778;2023-06-22T11:25:59;85971.32;;;25.28;16.48
36520;BME280;40269;46.742;9.778;2023-06-22T11:28:26;85989.07;;;26.23;15.91
36520;BME280;40269;46.742;9.778;2023-06-22T11:30:52;85978.16;;;26.89;15.00
36520;BME280;40269;46.742;9.778;2023-06-22T11:33:19;85965.05;;;27.85;14.77
36520;BME280;40269;46.742;9.778;2023-06-22T11:35:46;85963.29;;;29.39;14.06
36520;BME280;40269;46.742;9.778;2023-06-22T11:38:12;85967.82;;;30.04;13.60
36520;BME280;40269;46.742;9.778;2023-06-22T11:40:39;85960.95;;;29.53;13.97
36520;BME280;40269;46.742;9.778;2023-06-22T11:43:05;85958.67;;;29.51;12.85
36520;BME280;40269;46.742;9.778;2023-06-22T11:45:32;85969.84;;;27.51;13.32
36520;BME280;40269;46.742;9.778;2023-06-22T11:47:59;85948.09;;;28.51;13.56
36520;BME280;40269;46.742;9.778;2023-06-22T11:50:26;85949.84;;;26.23;14.25
36520;BME280;40269;46.742;9.778;2023-06-22T11:52:53;85945.54;;;25.31;14.97
36520;BME280;40269;46.742;9.778;2023-06-22T11:55:19;85947.33;;;28.62;14.58
36520;BME280;40269;46.742;9.778;2023-06-22T11:57:55;85951.74;;;30.21;13.64
36520;BME280;40269;46.742;9.778;2023-06-22T12:00:22;85941.56;;;28.52;13.03
36520;BME280;40269;46.742;9.778;2023-06-22T12:02:49;85941.69;;;29.91;12.32
36520;BME280;40269;46.742;9.778;2023-06-22T12:05:17;85957.13;;;29.17;12.46
36520;BME280;40269;46.742;9.778;2023-06-22T12:07:44;85950.37;;;29.20;12.36
36520;BME280;40269;46.742;9.778;2023-06-22T12:10:11;85939.45;;;28.76;12.68
36520;BME280;40269;46.742;9.778;2023-06-22T12:12:38;85953.74;;;28.04;13.73
36520;BME280;40269;46.742;9.778;2023-06-22T12:15:05;85945.59;;;28.73;13.66
36520;BME280;40269;46.742;9.778;2023-06-22T12:17:34;85948.60;;;30.71;12.11
36520;BME280;40269;46.742;9.778;2023-06-22T12:20:01;85954.87;;;26.66;14.03
36520;BME280;40269;46.742;9.778;2023-06-22T12:22:28;85963.04;;;28.09;14.10
36520;BME280;40269;46.742;9.778;2023-06-22T12:24:55;85957.05;;;28.74;13.29
36520;BME280;40269;46.742;9.778;2023-06-22T12:27:22;85972.02;;;29.09;12.71
36520;BME280;40269;46.742;9.778;2023-06-22T12:29:49;85957.30;;;30.97;10.96
36520;BME280;40269;46.742;9.778;2023-06-22T12:32:16;85965.46;;;29.26;11.98
36520;BME280;40269;46.742;9.778;2023-06-22T12:34:44;85949.12;;;31.28;12.59
36520;BME280;40269;46.742;9.778;2023-06-22T12:37:11;85957.80;;;31.47;10.94
36520;BME280;40269;46.742;9.778;2023-06-22T12:39:40;85969.94;;;31.95;9.94
36520;BME280;40269;46.742;9.778;2023-06-22T12:42:07;85931.79;;;33.75;9.29
36520;BME280;40269;46.742;9.778;2023-06-22T12:44:34;85949.33;;;32.69;10.17
36520;BME280;40269;46.742;9.778;2023-06-22T12:47:01;85953.60;;;30.94;10.90
36520;BME280;40269;46.742;9.778;2023-06-22T12:49:29;85940.44;;;32.35;10.56
36520;BME280;40269;46.742;9.778;2023-06-22T12:51:56;85923.54;;;31.40;13.26
36520;BME280;40269;46.742;9.778;2023-06-22T12:54:23;85918.02;;;30.51;11.20
36520;BME280;40269;46.742;9.778;2023-06-22T12:56:51;85920.30;;;32.40;11.58
36520;BME280;40269;46.742;9.778;2023-06-22T12:59:18;85926.28;;;31.39;11.62